Time;durP1;ratioP1;P1;durP2;ratioP2;P2;SDS_P1;SDS_P2;PMS_P1;PMS_P2;Temp;Humidity;BMP_temperature;BMP_pressure;BME280_temperature;BME280_humidity;BME280_pressure;Samples;Min_cycle;Max_cycle;Signal;HPM_P1;HPM_P2
2022/10/13 00:00:06;;;;;;;33.13;15.73;;;11.50;42.90;;;;;;5007624;28;20460;-58
2022/10/13 00:02:34;;;;;;;21.70;14.40;;;11.40;42.80;;;;;;5007395;28;20480;-58
2022/10/13 00:05:01;;;;;;;21.83;14.27;;;11.40;42.70;;;;;;5005564;28;20464;-59
2022/10/13 00:07:28;;;;;;;20.50;14.20;;;11.30;42.70;;;;;;5000272;28;20463;-58
2022/10/13 00:09:55;;;;;;;18.80;14.17;;;11.30;42.60;;;;;;5003674;28;20470;-58
2022/10/13 00:12:21;;;;;;;23.27;14.70;;;11.30;42.60;;;;;;5007965;28;20456;-58
2022/10/13 00:14:48;;;;;;;17.57;14.67;;;11.20;42.70;;;;;;5005290;28;20456;-59
2022/10/13 00:17:15;;;;;;;20.30;14.47;;;11.20;42.70;;;;;;5010800;28;20463;-59
2022/10/13 00:19:43;;;;;;;18.93;14.00;;;11.30;42.70;;;;;;5010933;28;20464;-60
2022/10/13 00:22:10;;;;;;;17.03;13.20;;;11.20;42.60;;;;;;5009169;28;20464;-59
2022/10/13 00:24:37;;;;;;;22.87;13.80;;;11.20;42.70;;;;;;5008838;28;20484;-59
2022/10/13 00:27:04;;;;;;;19.57;14.93;;;11.20;43.40;;;;;;5009853;28;20483;-60
2022/10/13 00:29:30;;;;;;;20.57;15.10;;;11.20;42.80;;;;;;5010289;28;20467;-59
2022/10/13 00:31:57;;;;;;;20.90;14.50;;;11.20;42.70;;;;;;5011919;28;20506;-59
2022/10/13 00:34:24;;;;;;;19.60;14.33;;;11.20;42.70;;;;;;5006746;28;20488;-59
2022/10/13 00:36:52;;;;;;;22.53;15.03;;;11.20;42.80;;;;;;5007676;28;20479;-59
2022/10/13 00:39:19;;;;;;;19.13;13.90;;;11.30;42.80;;;;;;5007102;28;20468;-59
2022/10/13 00:41:45;;;;;;;16.67;14.47;;;11.30;42.80;;;;;;5010233;28;20479;-59
2022/10/13 00:44:45;;;;;;;21.33;15.17;;;11.30;42.80;;;;;;5008530;28;20483;-59
2022/10/13 00:47:12;;;;;;;19.00;13.70;;;11.30;43.00;;;;;;5004347;28;20456;-60
2022/10/13 00:49:39;;;;;;;20.00;14.37;;;11.30;42.80;;;;;;5010268;28;20467;-59
2022/10/13 00:52:07;;;;;;;23.50;14.63;;;11.30;42.80;;;;;;5009341;28;20470;-60
2022/10/13 00:54:34;;;;;;;20.57;13.53;;;11.30;42.80;;;;;;5004720;28;20457;-59
2022/10/13 00:57:03;;;;;;;18.93;14.37;;;11.30;42.80;;;;;;5008159;28;20483;-59
2022/10/13 00:59:30;;;;;;;21.47;16.20;;;11.30;42.70;;;;;;5010146;28;20459;-60
2022/10/13 01:01:59;;;;;;;19.70;14.50;;;11.30;42.60;;;;;;5008216;28;20479;-60
2022/10/13 01:04:31;;;;;;;15.80;13.23;;;11.40;42.60;;;;;;5006126;28;20476;-59
2022/10/13 01:06:59;;;;;;;18.83;13.97;;;11.40;42.50;;;;;;5008795;28;20494;-59
2022/10/13 01:09:33;;;;;;;18.87;13.70;;;11.40;42.50;;;;;;5008373;28;20459;-59
2022/10/13 01:12:10;;;;;;;20.30;13.80;;;11.40;42.40;;;;;;5007000;28;20463;-59
2022/10/13 01:14:47;;;;;;;18.33;14.07;;;11.40;42.50;;;;;;5004758;28;20499;-59
2022/10/13 01:17:23;;;;;;;19.97;13.63;;;11.40;42.30;;;;;;5007984;28;20459;-59
2022/10/13 01:20:07;;;;;;;16.40;12.67;;;11.50;42.20;;;;;;5005654;28;20459;-59
2022/10/13 01:22:47;;;;;;;17.77;14.37;;;11.40;42.00;;;;;;5007705;28;20835;-59
2022/10/13 01:25:33;;;;;;;20.50;13.47;;;11.40;42.60;;;;;;5006095;28;21008;-59
2022/10/13 01:28:19;;;;;;;24.70;14.20;;;11.40;42.10;;;;;;4999623;28;20472;-59
2022/10/13 01:30:51;;;;;;;19.13;14.37;;;11.40;41.90;;;;;;5005290;28;20467;-60
2022/10/13 01:33:29;;;;;;;16.77;13.43;;;11.40;41.60;;;;;;5006389;28;20460;-59
2022/10/13 01:36:06;;;;;;;19.90;14.10;;;11.40;41.60;;;;;;5004626;28;20479;-59
2022/10/13 01:38:40;;;;;;;45.87;15.30;;;11.40;41.40;;;;;;5004541;28;20839;-59
2022/10/13 01:41:14;;;;;;;15.70;12.13;;;11.30;41.10;;;;;;5006413;28;20456;-59
2022/10/13 01:43:46;;;;;;;17.03;13.63;;;11.30;41.10;;;;;;5006536;28;20483;-59
2022/10/13 01:46:17;;;;;;;35.13;13.80;;;11.30;41.10;;;;;;5003704;28;20484;-60
2022/10/13 01:48:45;;;;;;;21.90;13.57;;;11.20;40.80;;;;;;5001018;28;20456;-60
2022/10/13 01:51:15;;;;;;;16.63;12.83;;;11.20;40.60;;;;;;5007500;28;20451;-60
2022/10/13 01:53:43;;;;;;;15.03;12.73;;;11.20;40.80;;;;;;5008253;28;20456;-60
2022/10/13 01:56:11;;;;;;;16.50;13.03;;;11.10;41.00;;;;;;5006173;28;20495;-59
2022/10/13 01:58:38;;;;;;;29.20;13.40;;;11.10;41.00;;;;;;5007184;28;20824;-59
2022/10/13 02:01:28;;;;;;;27.27;13.70;;;11.10;40.80;;;;;;5004974;28;20487;-59
2022/10/13 02:04:12;;;;;;;24.33;15.37;;;11.00;41.00;;;;;;5001570;28;20480;-60
2022/10/13 02:06:44;;;;;;;19.30;14.93;;;11.00;41.20;;;;;;5006387;28;21592;-60
2022/10/13 02:09:17;;;;;;;17.53;13.30;;;11.00;41.30;;;;;;5001897;28;20464;-60
2022/10/13 02:11:49;;;;;;;19.97;14.70;;;11.00;41.30;;;;;;4999866;28;20542;-59
2022/10/13 02:14:19;;;;;;;18.33;14.67;;;11.00;41.40;;;;;;5008091;28;20460;-59
2022/10/13 02:16:48;;;;;;;19.73;15.90;;;11.00;41.40;;;;;;5009220;28;20825;-59
2022/10/13 02:19:18;;;;;;;17.47;13.67;;;11.00;41.40;;;;;;5008083;28;20471;-59
2022/10/13 02:21:45;;;;;;;18.63;13.70;;;11.00;41.30;;;;;;5002415;28;20456;-59
2022/10/13 02:24:13;;;;;;;18.73;14.20;;;11.00;41.20;;;;;;5006957;28;20487;-59
2022/10/13 02:26:41;;;;;;;20.97;15.63;;;11.10;41.40;;;;;;5007825;28;20518;-58
2022/10/13 02:29:09;;;;;;;18.57;14.10;;;11.10;41.40;;;;;;5009450;28;20467;-59
2022/10/13 02:31:36;;;;;;;19.80;14.53;;;11.10;41.30;;;;;;5008029;28;20484;-59
2022/10/13 02:34:03;;;;;;;18.47;14.23;;;11.20;41.20;;;;;;5005756;28;20491;-59
2022/10/13 02:36:32;;;;;;;18.00;15.00;;;11.20;41.30;;;;;;5007133;28;20479;-60
2022/10/13 02:38:59;;;;;;;18.57;14.87;;;11.20;41.60;;;;;;4999690;28;20471;-60
2022/10/13 02:41:26;;;;;;;19.40;15.00;;;11.20;41.50;;;;;;5007295;28;20472;-59
2022/10/13 02:43:52;;;;;;;19.00;14.13;;;11.30;41.60;;;;;;5007523;28;20479;-59
2022/10/13 02:46:19;;;;;;;14.27;12.37;;;11.30;41.60;;;;;;5004739;28;20577;-59
2022/10/13 02:48:46;;;;;;;14.83;11.43;;;11.30;41.40;;;;;;5002893;28;20486;-59
2022/10/13 02:51:13;;;;;;;19.90;13.23;;;11.40;41.40;;;;;;5004779;28;20456;-59
2022/10/13 02:53:41;;;;;;;17.90;12.20;;;11.40;41.20;;;;;;5005235;28;20460;-59
2022/10/13 02:56:08;;;;;;;14.57;11.97;;;11.40;41.30;;;;;;5006202;28;20485;-59
2022/10/13 02:58:34;;;;;;;14.97;12.00;;;11.40;41.40;;;;;;5004355;28;20468;-60
2022/10/13 03:01:06;;;;;;;17.10;12.00;;;11.50;41.30;;;;;;5007439;28;20476;-59
2022/10/13 03:03:33;;;;;;;14.80;12.00;;;11.50;41.30;;;;;;5004729;28;21155;-60
2022/10/13 03:05:59;;;;;;;14.23;11.20;;;11.50;41.10;;;;;;5008466;28;20868;-60
2022/10/13 03:08:26;;;;;;;14.57;12.03;;;11.50;41.10;;;;;;5007868;28;20468;-60
2022/10/13 03:10:54;;;;;;;17.20;12.80;;;11.50;41.20;;;;;;5005785;28;20467;-59
2022/10/13 03:13:21;;;;;;;15.57;12.30;;;11.60;41.10;;;;;;5007350;28;20464;-60
2022/10/13 03:15:48;;;;;;;16.97;12.30;;;11.60;41.10;;;;;;5006911;28;20850;-59
2022/10/13 03:18:15;;;;;;;20.13;12.73;;;11.70;41.10;;;;;;5007115;28;20457;-60
2022/10/13 03:20:42;;;;;;;15.43;12.00;;;11.70;41.00;;;;;;5008762;28;20455;-59
2022/10/13 03:23:08;;;;;;;19.37;13.43;;;11.70;40.90;;;;;;5006344;28;20460;-60
2022/10/13 03:25:36;;;;;;;15.67;13.23;;;11.70;40.90;;;;;;4998422;28;20487;-59
2022/10/13 03:28:04;;;;;;;15.20;13.23;;;11.80;40.80;;;;;;5004840;28;21038;-59
2022/10/13 03:30:31;;;;;;;18.40;13.10;;;11.80;40.70;;;;;;5006584;28;20464;-60
2022/10/13 03:32:57;;;;;;;13.43;11.93;;;11.80;40.70;;;;;;5003934;28;20451;-59
2022/10/13 03:35:24;;;;;;;15.23;12.70;;;11.90;40.70;;;;;;5007273;28;20826;-59
2022/10/13 03:37:51;;;;;;;15.53;12.70;;;11.90;40.60;;;;;;5004664;28;20462;-60
2022/10/13 03:40:18;;;;;;;14.40;12.70;;;11.90;40.60;;;;;;5001128;28;20455;-60
2022/10/13 03:42:44;;;;;;;16.33;13.57;;;11.90;40.60;;;;;;5006199;28;20463;-60
2022/10/13 03:45:13;;;;;;;17.43;13.70;;;11.90;40.60;;;;;;5007337;28;20494;-60
2022/10/13 03:47:39;;;;;;;16.40;12.07;;;11.90;40.60;;;;;;5003482;28;20459;-63
2022/10/13 03:50:07;;;;;;;18.40;12.70;;;11.90;40.80;;;;;;5007044;28;20486;-60
2022/10/13 03:52:34;;;;;;;14.67;11.70;;;12.00;40.40;;;;;;5003030;28;20464;-60
2022/10/13 03:55:01;;;;;;;17.63;12.70;;;11.90;40.50;;;;;;5005735;28;20452;-59
2022/10/13 03:57:27;;;;;;;18.07;13.87;;;11.90;40.40;;;;;;5003176;28;20463;-59
2022/10/13 03:59:56;;;;;;;16.10;12.90;;;11.90;40.50;;;;;;5005683;28;20888;-59
2022/10/13 04:02:24;;;;;;;17.93;13.33;;;11.90;40.60;;;;;;5003488;28;20480;-60
2022/10/13 04:04:51;;;;;;;16.93;11.83;;;11.90;40.60;;;;;;5002239;28;21010;-60
2022/10/13 04:07:18;;;;;;;14.97;12.23;;;11.90;40.40;;;;;;4998315;28;20467;-59
2022/10/13 04:09:44;;;;;;;16.17;13.57;;;11.90;40.50;;;;;;4993918;28;20583;-61
2022/10/13 04:12:11;;;;;;;19.27;13.37;;;11.90;40.60;;;;;;5002626;28;20460;-61
2022/10/13 04:14:38;;;;;;;17.07;12.40;;;11.90;40.60;;;;;;5000531;28;20820;-60
2022/10/13 04:17:04;;;;;;;18.07;13.53;;;11.90;40.30;;;;;;4997594;28;20491;-60
2022/10/13 04:19:33;;;;;;;17.10;13.17;;;11.90;40.40;;;;;;5001487;28;20464;-60
2022/10/13 04:21:59;;;;;;;19.90;14.43;;;11.80;40.40;;;;;;5004179;28;20468;-60
2022/10/13 04:24:26;;;;;;;17.57;13.23;;;11.90;40.70;;;;;;5003471;28;20515;-61
2022/10/13 04:26:53;;;;;;;18.37;14.63;;;11.90;40.70;;;;;;5004086;28;20494;-60
2022/10/13 04:29:19;;;;;;;17.27;13.47;;;11.90;40.60;;;;;;5008196;28;20554;-60
2022/10/13 04:31:46;;;;;;;21.80;14.20;;;11.90;40.70;;;;;;4991252;28;20486;-60
2022/10/13 04:34:13;;;;;;;17.77;14.67;;;11.90;40.70;;;;;;5005706;28;20468;-59
2022/10/13 04:36:41;;;;;;;17.20;14.57;;;11.90;40.60;;;;;;5001807;28;20486;-60
2022/10/13 04:39:08;;;;;;;18.33;13.70;;;11.90;40.60;;;;;;5008817;28;20460;-59
2022/10/13 04:41:35;;;;;;;17.47;14.13;;;11.90;40.70;;;;;;5004370;28;20491;-59
2022/10/13 04:44:02;;;;;;;17.43;14.57;;;11.80;40.80;;;;;;5005230;28;20470;-60
2022/10/13 04:46:29;;;;;;;21.50;14.00;;;11.90;40.90;;;;;;4998637;28;20568;-59
2022/10/13 04:48:57;;;;;;;18.40;14.67;;;11.90;40.90;;;;;;5000998;28;20506;-59
2022/10/13 04:51:26;;;;;;;18.63;14.50;;;11.90;40.90;;;;;;4998872;28;21259;-61
2022/10/13 04:53:59;;;;;;;20.60;13.30;;;11.90;40.90;;;;;;4998095;28;20460;-60
2022/10/13 04:56:27;;;;;;;20.83;14.57;;;11.90;41.00;;;;;;5001625;28;20967;-60
2022/10/13 04:58:54;;;;;;;22.70;16.70;;;11.90;40.80;;;;;;5002534;28;20793;-60
2022/10/13 05:01:24;;;;;;;19.37;14.10;;;11.90;41.00;;;;;;5010867;28;20480;-65
2022/10/13 05:03:51;;;;;;;20.03;14.07;;;11.90;40.90;;;;;;5005438;28;20494;-63
2022/10/13 05:06:20;;;;;;;18.17;14.63;;;12.00;41.00;;;;;;4996950;28;20912;-63
2022/10/13 05:08:46;;;;;;;22.20;15.57;;;12.00;41.00;;;;;;5009326;28;20466;-63
2022/10/13 05:11:14;;;;;;;18.63;15.30;;;12.00;41.00;;;;;;5004813;28;20463;-63
2022/10/13 05:13:41;;;;;;;21.20;14.10;;;12.00;41.10;;;;;;5005942;28;20459;-63
2022/10/13 05:16:09;;;;;;;18.57;14.17;;;12.00;41.10;;;;;;5004667;28;20484;-63
2022/10/13 05:18:36;;;;;;;19.97;14.10;;;12.00;41.10;;;;;;5005520;28;20488;-62
2022/10/13 05:21:10;;;;;;;19.50;14.20;;;12.00;41.10;;;;;;5005433;28;20867;-63
2022/10/13 05:23:37;;;;;;;21.10;13.73;;;12.00;41.30;;;;;;4997685;28;20948;-63
2022/10/13 05:26:06;;;;;;;18.00;15.77;;;12.10;41.00;;;;;;5003715;28;21063;-63
2022/10/13 05:28:34;;;;;;;18.43;13.07;;;12.00;41.00;;;;;;5005573;28;20460;-64
2022/10/13 05:31:09;;;;;;;19.00;13.80;;;12.10;41.10;;;;;;5008320;28;20483;-64
2022/10/13 05:33:36;;;;;;;21.50;14.50;;;12.10;41.20;;;;;;5005887;28;20460;-63
2022/10/13 05:36:05;;;;;;;18.03;15.90;;;12.10;41.10;;;;;;5004496;28;20472;-63
2022/10/13 05:38:32;;;;;;;23.07;14.87;;;12.10;41.10;;;;;;5003048;28;20464;-63
2022/10/13 05:41:02;;;;;;;20.10;14.80;;;12.10;41.00;;;;;;5009660;28;20470;-62
2022/10/13 05:43:30;;;;;;;22.27;15.57;;;12.10;41.20;;;;;;5003997;28;20491;-63
2022/10/13 05:45:59;;;;;;;20.53;15.00;;;12.20;41.10;;;;;;5001561;28;20488;-63
2022/10/13 05:48:26;;;;;;;21.93;17.23;;;12.20;41.20;;;;;;5003229;28;20961;-63
2022/10/13 05:50:53;;;;;;;21.20;15.07;;;12.20;41.20;;;;;;5006206;28;20467;-63
2022/10/13 05:53:22;;;;;;;22.87;17.10;;;12.20;41.20;;;;;;5002240;28;20475;-63
2022/10/13 05:55:49;;;;;;;19.63;14.97;;;12.30;41.30;;;;;;5007195;28;20491;-62
2022/10/13 05:58:16;;;;;;;26.63;16.40;;;12.30;41.30;;;;;;5008359;28;20996;-62
2022/10/13 06:00:43;;;;;;;28.33;17.70;;;12.40;42.00;;;;;;5005611;28;21016;-63
2022/10/13 06:03:14;;;;;;;25.00;18.10;;;12.40;41.80;;;;;;5004532;28;20456;-62
2022/10/13 06:05:44;;;;;;;27.20;18.57;;;12.50;42.00;;;;;;5004975;28;20507;-62
2022/10/13 06:08:11;;;;;;;25.23;18.60;;;12.50;41.90;;;;;;5003731;28;20597;-62
2022/10/13 06:10:37;;;;;;;27.20;17.93;;;12.60;41.90;;;;;;5001403;28;20464;-62
2022/10/13 06:13:04;;;;;;;28.33;19.50;;;12.60;42.00;;;;;;5005936;28;20826;-61
2022/10/13 06:15:31;;;;;;;28.23;19.13;;;12.60;41.90;;;;;;4999615;28;20491;-62
2022/10/13 06:17:58;;;;;;;28.07;19.53;;;12.70;42.00;;;;;;4998948;28;20460;-63
2022/10/13 06:20:27;;;;;;;31.97;20.77;;;12.70;42.00;;;;;;4999296;28;20463;-63
2022/10/13 06:22:54;;;;;;;34.23;22.27;;;12.80;42.00;;;;;;4998720;28;20465;-63
2022/10/13 06:25:21;;;;;;;30.03;19.90;;;12.80;41.90;;;;;;5001686;28;20494;-62
2022/10/13 06:27:48;;;;;;;30.40;19.80;;;12.90;41.90;;;;;;5002606;28;20474;-63
2022/10/13 06:30:15;;;;;;;30.67;20.73;;;12.90;41.90;;;;;;5007376;28;21072;-63
2022/10/13 06:32:42;;;;;;;28.27;20.87;;;12.90;41.90;;;;;;5002966;28;20464;-63
2022/10/13 06:35:09;;;;;;;28.53;19.90;;;12.90;42.00;;;;;;5000759;28;20479;-64
2022/10/13 06:37:38;;;;;;;30.93;20.20;;;13.00;41.90;;;;;;5005098;28;20975;-63
2022/10/13 06:40:06;;;;;;;31.27;19.37;;;13.00;41.80;;;;;;5001495;28;20554;-63
2022/10/13 06:42:33;;;;;;;34.07;20.03;;;13.10;41.80;;;;;;5002879;28;20460;-63
2022/10/13 06:45:00;;;;;;;34.60;20.87;;;13.10;41.70;;;;;;5005982;28;20489;-62
2022/10/13 06:47:27;;;;;;;32.43;19.50;;;13.20;41.60;;;;;;5000681;28;20460;-63
2022/10/13 06:49:53;;;;;;;32.60;20.70;;;13.20;41.70;;;;;;5002298;28;20458;-64
2022/10/13 06:52:20;;;;;;;29.53;20.10;;;13.30;41.40;;;;;;4998067;28;20460;-64
2022/10/13 06:54:48;;;;;;;27.83;18.57;;;13.30;41.40;;;;;;5006170;28;20492;-64
2022/10/13 06:57:15;;;;;;;31.83;21.00;;;13.40;41.40;;;;;;4994641;28;20476;-63
2022/10/13 06:59:43;;;;;;;30.43;18.70;;;13.40;41.40;;;;;;5004590;28;20471;-64
2022/10/13 07:02:09;;;;;;;33.03;20.90;;;13.40;41.40;;;;;;5000134;28;20476;-64
2022/10/13 07:04:36;;;;;;;30.70;19.93;;;13.50;41.50;;;;;;4995828;28;20836;-66
2022/10/13 07:07:03;;;;;;;35.73;20.50;;;13.50;41.40;;;;;;4989801;28;20499;-64
2022/10/13 07:09:31;;;;;;;35.37;22.40;;;13.60;41.90;;;;;;4997453;28;20467;-65
2022/10/13 07:11:59;;;;;;;30.50;19.77;;;13.70;41.10;;;;;;4993188;28;20471;-64
2022/10/13 07:14:26;;;;;;;31.20;19.60;;;13.80;40.70;;;;;;4999555;28;20463;-63
2022/10/13 07:16:53;;;;;;;26.43;18.93;;;14.00;40.40;;;;;;4999722;28;20479;-63
2022/10/13 07:19:20;;;;;;;29.97;20.43;;;14.10;40.90;;;;;;4995963;28;20859;-63
2022/10/13 07:21:47;;;;;;;27.80;18.17;;;14.20;40.00;;;;;;4995045;28;20493;-63
2022/10/13 07:24:15;;;;;;;29.20;18.77;;;14.30;39.60;;;;;;5000784;28;20559;-63
2022/10/13 07:26:41;;;;;;;28.07;18.27;;;14.40;39.40;;;;;;4996212;28;20488;-63
2022/10/13 07:29:09;;;;;;;33.13;18.97;;;14.50;39.50;;;;;;4997826;28;20472;-63
2022/10/13 07:31:36;;;;;;;30.23;18.57;;;14.60;39.20;;;;;;4992905;28;20881;-63
2022/10/13 07:34:04;;;;;;;27.13;17.47;;;14.80;38.70;;;;;;5002737;28;20467;-63
2022/10/13 07:36:31;;;;;;;26.17;18.50;;;14.90;38.40;;;;;;4996407;28;20972;-63
2022/10/13 07:38:58;;;;;;;27.60;16.87;;;15.20;37.60;;;;;;5001695;28;20591;-63
2022/10/13 07:41:25;;;;;;;23.77;17.37;;;15.60;37.60;;;;;;4998002;28;20468;-63
2022/10/13 07:43:55;;;;;;;27.23;17.73;;;16.10;36.00;;;;;;4999068;28;20467;-61
2022/10/13 07:46:24;;;;;;;24.97;16.30;;;16.30;34.90;;;;;;4994597;28;20487;-63
2022/10/13 07:48:52;;;;;;;27.43;16.90;;;16.50;34.30;;;;;;4997361;28;20468;-65
2022/10/13 07:51:20;;;;;;;22.93;15.90;;;17.30;33.40;;;;;;4996611;28;20459;-63
2022/10/13 07:53:49;;;;;;;23.23;15.90;;;18.20;30.90;;;;;;4990015;28;21024;-61
2022/10/13 07:56:16;;;;;;;22.37;16.23;;;18.70;28.30;;;;;;4998782;28;20480;-62
2022/10/13 07:58:45;;;;;;;19.17;14.90;;;19.60;26.20;;;;;;5001144;28;20461;-62
2022/10/13 08:01:12;;;;;;;23.60;15.07;;;20.80;23.30;;;;;;4999375;28;20511;-62
2022/10/13 08:03:41;;;;;;;22.03;14.90;;;22.00;20.10;;;;;;4996638;28;20968;-62
2022/10/13 08:06:09;;;;;;;19.87;13.80;;;22.70;17.80;;;;;;4995939;28;20495;-62
2022/10/13 08:08:36;;;;;;;20.20;12.97;;;22.90;16.40;;;;;;4992872;28;20480;-62
2022/10/13 08:11:03;;;;;;;17.43;13.30;;;24.00;15.10;;;;;;4998547;28;20506;-62
2022/10/13 08:13:30;;;;;;;16.30;12.37;;;25.40;12.10;;;;;;4996101;28;20456;-62
2022/10/13 08:16:00;;;;;;;20.23;12.80;;;25.90;10.00;;;;;;4996300;28;20479;-63
2022/10/13 08:18:27;;;;;;;17.17;12.90;;;26.60;8.50;;;;;;4997231;28;21143;-62
2022/10/13 08:20:59;;;;;;;19.70;12.40;;;27.10;7.40;;;;;;5001490;28;20455;-62
2022/10/13 08:23:26;;;;;;;21.67;14.07;;;28.00;6.60;;;;;;5000501;28;20460;-63
2022/10/13 08:25:53;;;;;;;17.90;12.27;;;28.70;4.30;;;;;;5000844;28;20479;-64
2022/10/13 08:28:21;;;;;;;17.30;12.23;;;28.90;3.00;;;;;;5000090;28;21008;-63
2022/10/13 08:30:49;;;;;;;20.87;12.73;;;28.50;3.20;;;;;;5003312;28;20495;-65
2022/10/13 08:33:16;;;;;;;15.80;12.33;;;28.20;3.90;;;;;;4999076;28;20478;-64
2022/10/13 08:35:43;;;;;;;18.87;11.90;;;28.40;4.20;;;;;;4996164;28;20493;-64
2022/10/13 08:38:11;;;;;;;14.97;12.00;;;29.10;4.00;;;;;;5004854;28;20463;-65
2022/10/13 08:40:38;;;;;;;18.77;11.60;;;29.80;2.50;;;;;;4996152;28;20460;-63
2022/10/13 08:43:06;;;;;;;19.93;12.60;;;30.50;1.50;;;;;;5002652;28;20483;-63
2022/10/13 08:45:34;;;;;;;17.70;10.33;;;31.30;1.00;;;;;;5004505;28;20487;-63
2022/10/13 08:48:03;;;;;;;17.97;11.63;;;32.00;1.00;;;;;;5000414;28;20474;-63
2022/10/13 08:50:34;;;;;;;15.30;11.67;;;32.60;1.00;;;;;;5007079;28;20468;-62
2022/10/13 08:53:04;;;;;;;19.53;11.50;;;33.00;1.00;;;;;;4999747;28;20468;-64
2022/10/13 08:55:37;;;;;;;17.07;12.10;;;33.00;1.00;;;;;;4998458;28;20495;-63
2022/10/13 08:58:12;;;;;;;17.73;11.43;;;32.80;1.00;;;;;;4999143;28;20458;-62
2022/10/13 09:00:39;;;;;;;14.97;11.50;;;32.20;1.00;;;;;;5004356;28;20843;-67
2022/10/13 09:03:22;;;;;;;21.67;12.70;;;31.50;1.00;;;;;;4995006;28;20474;-63
2022/10/13 09:06:06;;;;;;;14.33;11.00;;;30.60;1.00;;;;;;5000185;28;20483;-63
2022/10/13 09:08:40;;;;;;;20.10;13.17;;;30.10;1.00;;;;;;5002066;28;20471;-63
2022/10/13 09:11:11;;;;;;;17.70;11.40;;;29.30;1.00;;;;;;5001328;28;20451;-63
2022/10/13 09:13:39;;;;;;;17.63;13.00;;;28.60;1.80;;;;;;5001755;28;21146;-62
2022/10/13 09:16:06;;;;;;;19.33;12.27;;;28.10;2.70;;;;;;4998549;28;22832;-62
2022/10/13 09:18:33;;;;;;;20.00;12.47;;;27.70;3.00;;;;;;5007731;28;20463;-62
2022/10/13 09:21:11;;;;;;;20.20;13.13;;;27.00;3.90;;;;;;5000432;28;20492;-62
2022/10/13 09:23:38;;;;;;;21.40;12.93;;;26.30;5.10;;;;;;5000116;28;20462;-62
2022/10/13 09:26:09;;;;;;;17.87;11.43;;;26.00;6.20;;;;;;5000558;28;21193;-62
2022/10/13 09:28:37;;;;;;;19.97;13.50;;;26.40;6.10;;;;;;5000902;28;20902;-62
2022/10/13 09:31:13;;;;;;;17.60;12.47;;;26.40;5.80;;;;;;4996407;28;21042;-62
2022/10/13 09:33:40;;;;;;;17.73;13.40;;;25.90;5.80;;;;;;5017241;28;20458;-66
2022/10/13 09:36:10;;;;;;;17.73;12.17;;;25.50;6.80;;;;;;4997664;28;20467;-63
2022/10/13 09:38:39;;;;;;;17.30;11.80;;;25.30;7.30;;;;;;5002368;28;20465;-66
2022/10/13 09:41:17;;;;;;;18.27;12.13;;;25.50;7.40;;;;;;5002796;28;20467;-70
2022/10/13 09:43:59;;;;;;;19.20;11.90;;;25.40;7.10;;;;;;4996898;28;20466;-69
2022/10/13 09:46:28;;;;;;;16.50;11.60;;;25.20;7.60;;;;;;5001568;28;20483;-63
2022/10/13 09:48:57;;;;;;;17.27;11.47;;;25.40;7.90;;;;;;4993047;28;20472;-64
2022/10/13 09:51:33;;;;;;;17.53;11.60;;;25.30;7.90;;;;;;5009379;28;20460;-63
2022/10/13 09:54:00;;;;;;;19.10;12.27;;;25.20;8.20;;;;;;5003189;28;20470;-63
2022/10/13 09:56:34;;;;;;;19.97;12.10;;;25.00;8.60;;;;;;4997580;28;20490;-67
2022/10/13 09:59:10;;;;;;;18.20;11.50;;;24.70;9.00;;;;;;5003705;28;20469;-65
2022/10/13 10:01:41;;;;;;;17.43;11.77;;;24.30;9.40;;;;;;4995473;28;20478;-68
2022/10/13 10:04:13;;;;;;;17.23;12.57;;;23.90;9.90;;;;;;5002322;28;20546;-61
2022/10/13 10:06:40;;;;;;;18.63;12.60;;;23.50;10.00;;;;;;5000835;28;20483;-64
2022/10/13 10:09:22;;;;;;;20.57;11.83;;;23.10;10.60;;;;;;5002661;28;20465;-67
2022/10/13 10:11:52;;;;;;;23.03;12.77;;;22.90;11.10;;;;;;5004085;28;20478;-67
2022/10/13 10:14:25;;;;;;;18.93;12.37;;;22.70;11.90;;;;;;4993535;28;20468;-66
2022/10/13 10:17:00;;;;;;;19.30;11.70;;;22.70;12.10;;;;;;5001547;28;20478;-67
2022/10/13 10:19:32;;;;;;;18.77;11.83;;;22.70;12.40;;;;;;5004017;28;20461;-66
2022/10/13 10:22:06;;;;;;;14.70;10.50;;;22.70;12.40;;;;;;5002337;28;20459;-66
2022/10/13 10:24:38;;;;;;;16.80;12.83;;;22.60;12.40;;;;;;5004198;28;20459;-67
2022/10/13 10:27:08;;;;;;;19.77;12.20;;;22.50;12.60;;;;;;5001099;28;20480;-66
2022/10/13 10:29:47;;;;;;;15.63;11.30;;;22.50;12.70;;;;;;5005039;28;20463;-66
2022/10/13 10:32:28;;;;;;;17.90;12.30;;;22.50;13.00;;;;;;5004036;28;20480;-66
2022/10/13 10:34:59;;;;;;;15.30;10.43;;;22.60;13.50;;;;;;4999159;28;20526;-66
2022/10/13 10:37:43;;;;;;;19.33;10.97;;;22.70;12.30;;;;;;4999327;28;20468;-66
2022/10/13 10:40:21;;;;;;;14.97;10.03;;;23.00;12.20;;;;;;4999361;28;20479;-66
2022/10/13 10:43:01;;;;;;;21.80;11.40;;;23.50;11.90;;;;;;5000243;28;20463;-66
2022/10/13 10:45:37;;;;;;;17.03;10.20;;;23.80;11.10;;;;;;4997612;28;20486;-67
2022/10/13 10:48:13;;;;;;;23.60;11.33;;;23.70;10.80;;;;;;4998581;28;21035;-66
2022/10/13 10:50:40;;;;;;;13.53;10.20;;;23.60;10.80;;;;;;5003186;28;20990;-66
2022/10/13 10:53:12;;;;;;;14.97;10.87;;;23.40;11.40;;;;;;4998868;28;20562;-68
2022/10/13 10:55:49;;;;;;;15.63;10.50;;;23.30;11.60;;;;;;4999923;28;20498;-66
2022/10/13 10:58:26;;;;;;;16.17;11.10;;;23.30;11.50;;;;;;4997863;28;20471;-66
2022/10/13 11:01:02;;;;;;;13.90;10.17;;;23.20;11.60;;;;;;4995674;28;20475;-69
2022/10/13 11:03:40;;;;;;;15.40;8.80;;;23.10;11.30;;;;;;5001953;28;20464;-64
2022/10/13 11:06:25;;;;;;;23.57;10.07;;;23.00;11.30;;;;;;4996194;28;20486;-69
2022/10/13 11:08:54;;;;;;;16.20;10.77;;;22.90;12.00;;;;;;5004183;28;20958;-72
2022/10/13 11:11:36;;;;;;;14.90;9.73;;;22.90;12.30;;;;;;5001545;28;20603;-70
2022/10/13 11:14:35;;;;;;;15.20;10.43;;;22.90;12.30;;;;;;5001109;28;20455;-71
2022/10/13 11:17:15;;;;;;;24.07;10.87;;;22.80;12.40;;;;;;4990882;28;20546;-65
2022/10/13 11:19:42;;;;;;;16.20;10.33;;;22.70;12.80;;;;;;5002345;28;20467;-68
2022/10/13 11:22:24;;;;;;;17.57;10.30;;;22.70;12.80;;;;;;4996411;28;20468;-67
2022/10/13 11:25:19;;;;;;;14.57;9.80;;;22.50;12.20;;;;;;5004551;28;21014;-71
2022/10/13 11:27:45;;;;;;;16.40;9.30;;;22.40;12.80;;;;;;4993179;28;20480;-70
2022/10/13 11:30:42;;;;;;;18.23;10.43;;;22.30;13.30;;;;;;5005543;28;20468;-69
2022/10/13 11:33:35;;;;;;;14.60;10.90;;;22.20;13.20;;;;;;5002168;28;20926;-66
2022/10/13 11:36:46;;;;;;;16.50;10.73;;;22.00;13.40;;;;;;4969697;28;20534;-69
2022/10/13 11:40:02;;;;;;;15.87;10.33;;;21.80;13.80;;;;;;4999567;28;20460;-67
2022/10/13 11:43:00;;;;;;;16.13;10.43;;;21.70;14.50;;;;;;4969771;28;21071;-69
2022/10/13 11:45:57;;;;;;;13.80;9.30;;;21.50;14.60;;;;;;4998071;28;20506;-68
2022/10/13 11:49:01;;;;;;;12.63;9.67;;;21.40;15.30;;;;;;5004134;28;20475;-69
2022/10/13 11:51:38;;;;;;;16.53;9.70;;;21.30;15.60;;;;;;4998579;28;20480;-68
2022/10/13 11:54:16;;;;;;;14.70;10.13;;;21.30;15.00;;;;;;5000006;28;20459;-69
2022/10/13 11:56:49;;;;;;;18.57;11.40;;;21.20;15.10;;;;;;4999252;28;20940;-68
2022/10/13 11:59:25;;;;;;;17.63;10.73;;;21.00;15.50;;;;;;4997569;28;20467;-68
2022/10/13 12:01:57;;;;;;;17.33;12.07;;;20.80;16.10;;;;;;5000924;28;23107;-70
2022/10/13 12:04:27;;;;;;;14.83;9.53;;;20.80;16.30;;;;;;4996613;28;21009;-63
2022/10/13 12:06:57;;;;;;;15.50;10.10;;;20.70;16.60;;;;;;5007148;28;20484;-63
2022/10/13 12:09:24;;;;;;;20.50;12.50;;;20.70;17.10;;;;;;4999650;28;20468;-67
2022/10/13 12:12:01;;;;;;;17.63;12.67;;;20.70;16.90;;;;;;5005227;28;20455;-70
2022/10/13 12:14:32;;;;;;;18.17;12.17;;;20.50;16.60;;;;;;5000173;28;20464;-65
2022/10/13 12:17:01;;;;;;;16.03;10.53;;;20.40;17.20;;;;;;5006696;28;21153;-65
2022/10/13 12:19:31;;;;;;;16.93;10.27;;;20.40;17.50;;;;;;5000803;28;20461;-63
2022/10/13 12:21:59;;;;;;;18.03;10.53;;;20.30;17.70;;;;;;4997491;28;20475;-61
2022/10/13 12:24:29;;;;;;;17.07;10.60;;;20.30;17.80;;;;;;5004823;28;20458;-62
2022/10/13 12:26:57;;;;;;;18.20;10.83;;;20.30;18.00;;;;;;5004146;28;20491;-62
2022/10/13 12:29:26;;;;;;;18.80;11.10;;;20.20;18.20;;;;;;5002381;28;20468;-71
2022/10/13 12:31:54;;;;;;;16.10;11.57;;;20.20;18.50;;;;;;5009150;28;21787;-68
2022/10/13 12:34:26;;;;;;;15.57;10.40;;;20.10;18.60;;;;;;5009418;28;20451;-65
2022/10/13 12:36:58;;;;;;;15.83;10.00;;;20.10;19.20;;;;;;5010645;28;21219;-64
2022/10/13 12:39:26;;;;;;;18.40;11.07;;;20.20;19.10;;;;;;5009422;28;20822;-70
2022/10/13 12:41:55;;;;;;;14.00;10.10;;;20.10;18.90;;;;;;5010624;28;20456;-64
2022/10/13 12:44:24;;;;;;;17.17;11.10;;;20.10;19.10;;;;;;5001817;28;20456;-71